100LL.CA
Aviation Fuel Pricing for Canadians
Please upgrade your browser - Tested with IE9, FireFox, Chrome, Safari

Fuel Airports Other Help
Prices Economy Info List METAR/TAF Kneeboard Help

Reference Airport: ROUYN-NORANDA, QC
N 48 12 22  W 078 50 08
Provinces to show:

CYUY ROUYN-NORANDA, QC
WEATHER
METARCYUY 131923Z 31011G21KT 3SM -SN OVC013 00/M02 A2959 RMK SC8 SLP036
TAFTAF CYUY 131746Z 1318/1406 30012G22KT 2 1/2SM -SN OVC008 TEMPO 1318/1321 6SM -SN SCT008 OVC020 FM132100 30015G25KT P6SM BKN030 TEMPO 1321/1324 5SM -SN BKN020 BECMG 1322/1324 31008KT FM140300 29005KT P6SM FEW030 RMK NXT FCST BY 140000Z
OTHER SITES

FlightAware

FltPlan

Google Maps

SkyVector
FUEL
FBO 100LL
member
100LL
public
JETA MOGAS
Propair (2018-03-20)1.8271.279
Canada Flight Supplement - CYUY
(opens in new tab/window)


Please Send Updates!

Desktop Version ]  [ Mobile Version ]  [ Disclaimer ]